createdAt,value
2022-11-05T00:00:58.180Z,8.98
2022-11-05T00:03:43.168Z,7.07
2022-11-05T00:06:29.345Z,7.88
2022-11-05T00:09:18.737Z,9.07
2022-11-05T00:12:03.578Z,5.55
2022-11-05T00:14:48.432Z,8.65
2022-11-05T00:17:14.883Z,7.18
2022-11-05T00:19:41.344Z,8.23
2022-11-05T00:22:26.165Z,6.28
2022-11-05T00:25:11.032Z,8.15
2022-11-05T00:27:37.450Z,6.55
2022-11-05T00:30:07.099Z,8.38
2022-11-05T00:32:33.789Z,8.43
2022-11-05T00:35:00.500Z,6.25
2022-11-05T00:37:28.210Z,6.65
2022-11-05T00:39:54.678Z,9.25
2022-11-05T00:42:39.600Z,7.85
2022-11-05T00:45:07.025Z,5.20
2022-11-05T00:47:52.405Z,11.30
2022-11-05T00:50:21.045Z,8.88
2022-11-05T00:52:55.539Z,6.70
2022-11-05T00:55:29.563Z,8.30
2022-11-05T00:57:57.435Z,8.85
2022-11-05T01:00:26.230Z,8.95
2022-11-05T01:02:52.953Z,5.93
2022-11-05T01:05:19.884Z,5.72
2022-11-05T01:07:46.399Z,10.38
2022-11-05T01:10:12.951Z,12.00
2022-11-05T01:12:39.668Z,8.02
2022-11-05T01:15:06.677Z,8.70
2022-11-05T01:17:33.129Z,11.38
2022-11-05T01:19:59.636Z,9.38
2022-11-05T01:22:26.171Z,10.18
2022-11-05T01:24:52.653Z,7.57
2022-11-05T01:27:19.091Z,10.25
2022-11-05T01:29:45.559Z,7.82
2022-11-05T01:32:12.051Z,8.32
2022-11-05T01:34:38.487Z,8.32
2022-11-05T01:37:05.174Z,9.05
2022-11-05T01:39:31.658Z,9.00
2022-11-05T01:41:58.816Z,7.63
2022-11-05T01:48:43.551Z,7.68
2022-11-05T01:51:13.880Z,8.38
2022-11-05T01:54:10.183Z,9.43
2022-11-05T01:56:53.060Z,8.35
2022-11-05T01:59:25.861Z,7.90
2022-11-05T02:01:54.555Z,9.60
2022-11-05T02:04:33.021Z,8.00
2022-11-05T02:07:02.039Z,9.48
2022-11-05T02:09:46.386Z,7.80
2022-11-05T02:12:14.287Z,6.68
2022-11-05T02:14:40.764Z,9.07
2022-11-05T02:17:16.220Z,9.68
2022-11-05T02:20:07.100Z,7.05
2022-11-05T02:22:51.303Z,7.22
2022-11-05T02:25:39.549Z,7.38
2022-11-05T02:28:26.549Z,7.90
2022-11-05T02:31:04.654Z,9.15
2022-11-05T02:33:45.841Z,9.13
2022-11-05T02:36:25.350Z,6.88
2022-11-05T02:39:00.925Z,9.50
2022-11-05T02:41:38.101Z,8.27
2022-11-05T02:44:26.825Z,6.03
2022-11-05T02:47:12.877Z,5.20
2022-11-05T02:50:11.290Z,7.93
2022-11-05T02:52:42.390Z,7.05
2022-11-05T02:55:27.614Z,6.78
2022-11-05T02:57:54.526Z,8.75
2022-11-05T03:00:49.808Z,5.22
2022-11-05T03:03:51.428Z,9.77
2022-11-05T03:06:42.342Z,7.70
2022-11-05T03:09:50.545Z,8.88
2022-11-05T03:12:35.509Z,9.32
2022-11-05T03:15:27.341Z,9.82
2022-11-05T03:18:22.669Z,11.63
2022-11-05T03:21:19.896Z,12.23
2022-11-05T03:24:14.786Z,12.52
2022-11-05T03:26:50.683Z,10.23
2022-11-05T03:29:23.103Z,11.15
2022-11-05T03:31:52.385Z,12.98
2022-11-05T03:34:24.838Z,11.52
2022-11-05T03:36:55.670Z,12.55
2022-11-05T03:39:28.772Z,11.75
2022-11-05T03:41:57.731Z,10.10
2022-11-05T03:44:29.380Z,10.75
2022-11-05T03:47:02.346Z,10.38
2022-11-05T03:49:45.508Z,11.93
2022-11-05T03:52:18.276Z,11.93
2022-11-05T03:54:46.543Z,12.07
2022-11-05T03:57:19.622Z,11.98
2022-11-05T03:59:49.165Z,9.52
2022-11-05T04:02:18.763Z,8.20
2022-11-05T04:04:46.755Z,10.07
2022-11-05T04:07:31.985Z,10.00
2022-11-05T04:10:17.284Z,8.00
2022-11-05T04:13:02.382Z,11.57
2022-11-05T04:15:51.866Z,9.02
2022-11-05T04:18:18.376Z,9.77
2022-11-05T04:21:03.637Z,9.80
2022-11-05T04:23:48.549Z,10.10
2022-11-05T04:26:15.004Z,11.48
2022-11-05T04:29:03.833Z,7.80
2022-11-05T04:31:34.188Z,10.75
2022-11-05T04:34:00.787Z,7.75
2022-11-05T04:36:27.333Z,8.07
2022-11-05T04:38:53.746Z,7.22
2022-11-05T04:41:20.160Z,8.70
2022-11-05T04:43:46.667Z,8.52
2022-11-05T04:46:13.089Z,10.52
2022-11-05T04:48:39.648Z,8.88
2022-11-05T04:51:06.275Z,7.97
2022-11-05T04:53:32.854Z,5.82
2022-11-05T04:56:14.788Z,5.35
2022-11-05T04:58:41.971Z,6.88
2022-11-05T05:01:13.507Z,12.00
2022-11-05T05:03:40.224Z,8.90
2022-11-05T05:06:07.081Z,4.65
2022-11-05T05:08:33.880Z,10.35
2022-11-05T05:11:04.899Z,8.27
2022-11-05T05:13:31.756Z,10.77
2022-11-05T05:15:58.736Z,11.25
2022-11-05T05:18:26.737Z,10.88
2022-11-05T05:21:16.484Z,6.57
2022-11-05T05:23:43.038Z,11.45
2022-11-05T05:26:09.740Z,6.30
2022-11-05T05:28:36.191Z,10.45
2022-11-05T05:31:02.693Z,9.38
2022-11-05T05:33:29.179Z,10.40
2022-11-05T05:35:59.699Z,7.07
2022-11-05T05:38:26.153Z,10.88
2022-11-05T05:40:57.091Z,6.65
2022-11-05T05:43:23.510Z,9.27
2022-11-05T05:45:49.933Z,11.60
2022-11-05T05:48:16.342Z,4.45
2022-11-05T05:50:42.757Z,4.60
2022-11-05T05:53:09.491Z,9.00
2022-11-05T05:55:36.052Z,7.05
2022-11-05T05:58:02.528Z,11.13
2022-11-05T06:00:29.126Z,7.25
2022-11-05T06:02:56.505Z,12.00
2022-11-05T06:05:22.974Z,9.25
2022-11-05T06:07:58.650Z,10.05
2022-11-05T06:10:25.708Z,6.05
2022-11-05T06:12:52.202Z,9.13
2022-11-05T06:15:18.624Z,10.23
2022-11-05T06:17:45.279Z,7.43
2022-11-05T06:20:14.775Z,8.52
2022-11-05T06:22:41.299Z,8.05
2022-11-05T06:25:08.752Z,8.60
2022-11-05T06:27:36.778Z,7.65
2022-11-05T06:30:04.879Z,10.55
2022-11-05T06:32:31.352Z,10.27
2022-11-05T06:34:57.844Z,9.73
2022-11-05T06:37:24.335Z,10.00
2022-11-05T06:39:50.762Z,10.20
2022-11-05T06:42:18.788Z,6.88
2022-11-05T06:44:45.863Z,10.20
2022-11-05T06:47:12.342Z,9.52
2022-11-05T06:49:38.751Z,9.20
2022-11-05T06:52:05.237Z,7.35
2022-11-05T06:54:31.680Z,11.05
2022-11-05T06:56:58.084Z,10.27
2022-11-05T06:59:24.508Z,8.63
2022-11-05T07:01:51.029Z,9.90
2022-11-05T07:04:17.506Z,8.25
2022-11-05T07:06:43.929Z,9.02
2022-11-05T07:09:10.355Z,8.32
2022-11-05T07:11:36.790Z,8.13
2022-11-05T07:14:03.316Z,8.20
2022-11-05T07:16:29.804Z,8.93
2022-11-05T07:18:56.279Z,9.15
2022-11-05T07:21:22.726Z,11.23
2022-11-05T07:23:49.181Z,10.63
2022-11-05T07:26:15.701Z,9.65
2022-11-05T07:28:42.159Z,9.95
2022-11-05T07:31:08.594Z,8.90
2022-11-05T07:33:36.652Z,9.18
2022-11-05T07:36:03.602Z,9.73
2022-11-05T07:38:30.608Z,9.68
2022-11-05T07:41:00.158Z,11.35
2022-11-05T07:43:26.662Z,9.02
2022-11-05T07:45:53.146Z,10.27
2022-11-05T07:48:19.628Z,9.00
2022-11-05T07:50:46.080Z,7.85
2022-11-05T07:53:14.432Z,9.68
2022-11-05T07:55:42.092Z,10.30
2022-11-05T07:58:10.363Z,10.77
2022-11-05T08:00:36.895Z,9.00
2022-11-05T08:03:16.331Z,8.95
2022-11-05T08:05:46.148Z,10.13
2022-11-05T08:08:18.022Z,9.80
2022-11-05T08:10:44.856Z,6.60
2022-11-05T08:13:13.244Z,8.77
2022-11-05T08:15:40.740Z,6.63
2022-11-05T08:18:15.662Z,8.10
2022-11-05T08:20:43.545Z,8.82
2022-11-05T08:23:10.814Z,8.57
2022-11-05T08:25:37.936Z,9.02
2022-11-05T08:28:07.806Z,9.18
2022-11-05T08:30:35.366Z,8.35
2022-11-05T08:33:08.174Z,8.18
2022-11-05T08:35:36.185Z,4.95
2022-11-05T08:38:05.033Z,10.43
2022-11-05T08:40:35.553Z,8.50
2022-11-05T08:43:03.840Z,8.65
2022-11-05T08:45:31.019Z,8.57
2022-11-05T08:48:07.995Z,4.97
2022-11-05T08:50:35.049Z,7.82
2022-11-05T08:53:01.679Z,8.27
2022-11-05T08:55:28.519Z,6.93
2022-11-05T08:58:03.631Z,8.43
2022-11-05T09:00:33.211Z,8.88
2022-11-05T09:03:01.077Z,7.40
2022-11-05T09:05:29.203Z,7.40
2022-11-05T09:08:00.828Z,8.40
2022-11-05T09:10:28.494Z,7.68
2022-11-05T09:12:55.064Z,7.32
2022-11-05T09:15:23.106Z,7.53
2022-11-05T09:17:49.691Z,8.45
2022-11-05T09:20:16.360Z,6.95
2022-11-05T09:22:43.617Z,6.60
2022-11-05T09:25:10.558Z,7.03
2022-11-05T09:27:37.379Z,6.95
2022-11-05T09:30:05.036Z,6.13
2022-11-05T09:32:32.421Z,6.40
2022-11-05T09:35:01.056Z,6.22
2022-11-05T09:37:28.556Z,8.27
2022-11-05T09:39:55.152Z,5.85
2022-11-05T09:42:26.536Z,6.70
2022-11-05T09:44:59.417Z,5.93
2022-11-05T09:47:39.786Z,6.47
2022-11-05T09:50:16.077Z,6.55
2022-11-05T09:52:42.752Z,5.53
2022-11-05T09:55:27.779Z,6.25
2022-11-05T09:58:00.617Z,6.20
2022-11-05T10:00:29.151Z,5.85
2022-11-05T10:03:04.086Z,4.88
2022-11-05T10:05:33.463Z,5.45
2022-11-05T10:08:23.599Z,4.97
2022-11-05T10:10:55.002Z,5.03
2022-11-05T10:13:42.658Z,5.63
2022-11-05T10:16:25.948Z,5.47
2022-11-05T10:18:59.135Z,5.18
2022-11-05T10:21:51.473Z,4.47
2022-11-05T10:24:20.115Z,3.90
2022-11-05T10:26:49.245Z,3.92
2022-11-05T10:29:25.826Z,4.47
2022-11-05T10:31:56.656Z,4.40
2022-11-05T10:34:28.721Z,4.22
2022-11-05T10:36:55.295Z,3.95
2022-11-05T10:39:23.360Z,3.65
2022-11-05T10:42:14.464Z,4.50
2022-11-05T10:44:52.451Z,3.78
2022-11-05T10:47:56.341Z,2.70
2022-11-05T10:50:30.887Z,3.20
2022-11-05T10:53:06.797Z,3.30
2022-11-05T10:55:38.577Z,3.30
2022-11-05T10:58:17.046Z,2.30
2022-11-05T11:00:45.752Z,2.80
2022-11-05T11:03:45.858Z,2.53
2022-11-05T11:06:27.666Z,3.47
2022-11-05T11:08:57.899Z,3.05
2022-11-05T11:11:38.731Z,2.47
2022-11-05T11:14:22.213Z,2.75
2022-11-05T11:16:51.188Z,2.33
2022-11-05T11:19:23.655Z,3.33
2022-11-05T11:22:05.403Z,3.10
2022-11-05T11:24:45.172Z,2.40
2022-11-05T11:27:17.124Z,2.25
2022-11-05T11:29:49.577Z,1.98
2022-11-05T11:32:19.335Z,2.05
2022-11-05T11:34:51.034Z,2.60
2022-11-05T11:37:24.156Z,3.08
2022-11-05T11:39:56.644Z,3.25
2022-11-05T11:42:35.855Z,2.28
2022-11-05T11:45:17.392Z,2.63
2022-11-05T11:47:46.716Z,2.00
2022-11-05T11:50:31.364Z,2.03
2022-11-05T11:53:19.664Z,2.53
2022-11-05T11:55:59.817Z,2.22
2022-11-05T11:58:44.490Z,2.30
2022-11-05T12:01:26.310Z,2.55
2022-11-05T12:04:28.814Z,2.00
2022-11-05T12:07:20.276Z,1.90
2022-11-05T12:09:56.016Z,2.22
2022-11-05T12:12:34.344Z,2.67
2022-11-05T12:15:24.487Z,1.80
2022-11-05T12:20:40.702Z,2.85
2022-11-05T12:23:44.398Z,3.00
2022-11-05T12:26:26.202Z,1.75
2022-11-05T12:29:18.753Z,2.35
2022-11-05T12:32:04.197Z,2.80
2022-11-05T12:34:46.652Z,2.25
2022-11-05T12:37:51.694Z,1.65
2022-11-05T12:40:39.220Z,1.65
2022-11-05T12:43:24.103Z,2.10
2022-11-05T12:46:05.822Z,1.90
2022-11-05T12:48:53.816Z,1.30
2022-11-05T12:51:32.533Z,1.65
2022-11-05T12:57:52.207Z,1.58
2022-11-05T13:04:30.202Z,1.63
2022-11-05T13:07:58.025Z,2.10
2022-11-05T13:11:10.297Z,1.92
2022-11-05T13:13:42.782Z,1.58
2022-11-05T13:16:19.424Z,2.05
2022-11-05T13:18:56.964Z,1.73
2022-11-05T13:21:26.211Z,1.80
2022-11-05T13:24:04.005Z,1.80
2022-11-05T13:26:39.824Z,1.60
2022-11-05T13:29:17.972Z,1.60
2022-11-05T13:31:53.230Z,1.10
2022-11-05T13:34:19.829Z,1.40
2022-11-05T13:37:13.985Z,2.45
2022-11-05T13:39:54.767Z,1.40
2022-11-05T13:42:39.648Z,1.25
2022-11-05T13:45:16.696Z,1.92
2022-11-05T13:47:50.131Z,1.77
2022-11-05T13:51:07.822Z,1.42
2022-11-05T13:54:05.216Z,1.90
2022-11-05T13:56:37.880Z,1.67
2022-11-05T14:02:13.450Z,2.28
2022-11-05T14:04:46.924Z,1.63
2022-11-05T14:07:23.180Z,1.23
2022-11-05T14:09:56.753Z,1.15
2022-11-05T14:12:31.103Z,1.40
2022-11-05T14:15:05.187Z,1.65
2022-11-05T14:17:56.424Z,1.83
2022-11-05T14:20:41.855Z,1.80
2022-11-05T14:23:17.580Z,1.30
2022-11-05T14:28:35.491Z,1.90
2022-11-05T14:31:02.923Z,2.72
2022-11-05T14:33:38.079Z,1.98
2022-11-05T14:36:30.412Z,3.70
2022-11-05T14:39:12.201Z,4.07
2022-11-05T14:42:14.698Z,2.22
2022-11-05T14:45:20.088Z,1.70
2022-11-05T14:47:56.144Z,1.52
2022-11-05T14:50:31.026Z,2.63
2022-11-05T14:53:03.121Z,1.77
2022-11-05T14:56:07.805Z,2.30
2022-11-05T14:59:21.143Z,2.03
2022-11-05T15:02:01.131Z,5.70
2022-11-05T15:04:33.547Z,3.78
2022-11-05T15:07:02.204Z,1.60
2022-11-05T15:09:53.124Z,4.05
2022-11-05T15:12:32.511Z,2.85
2022-11-05T15:15:01.087Z,3.67
2022-11-05T15:17:30.141Z,1.80
2022-11-05T15:20:13.574Z,1.88
2022-11-05T15:22:43.641Z,3.47
2022-11-05T15:25:28.566Z,2.30
2022-11-05T15:27:57.986Z,2.35
2022-11-05T15:30:24.744Z,2.50
2022-11-05T15:32:52.143Z,2.20
2022-11-05T15:35:27.259Z,2.10
2022-11-05T15:38:01.837Z,2.40
2022-11-05T15:40:32.468Z,2.65
2022-11-05T15:43:22.149Z,1.75
2022-11-05T15:46:03.263Z,2.40
2022-11-05T15:48:30.149Z,2.35
2022-11-05T15:50:57.269Z,2.40
2022-11-05T15:56:58.893Z,2.78
2022-11-05T15:59:27.455Z,2.08
2022-11-05T16:02:34.588Z,2.78
2022-11-05T16:05:09.466Z,3.40
2022-11-05T16:10:27.935Z,3.75
2022-11-05T16:12:54.401Z,4.35
2022-11-05T16:15:32.437Z,3.65
2022-11-05T16:18:00.243Z,5.13
2022-11-05T16:20:28.647Z,3.28
2022-11-05T16:22:58.366Z,3.63
2022-11-05T16:25:37.694Z,3.08
2022-11-05T16:28:06.454Z,2.65
2022-11-05T16:30:32.906Z,4.28
2022-11-05T16:33:05.016Z,4.53
2022-11-05T16:35:31.489Z,2.20
2022-11-05T16:38:00.927Z,2.65
2022-11-05T16:40:27.492Z,2.47
2022-11-05T16:42:54.088Z,3.75
2022-11-05T16:45:23.926Z,3.20
2022-11-05T16:47:50.868Z,3.03
2022-11-05T16:50:26.710Z,3.38
2022-11-05T16:52:53.511Z,4.10
2022-11-05T16:55:20.466Z,5.20
2022-11-05T16:57:50.945Z,4.40
2022-11-05T17:00:20.100Z,3.17
2022-11-05T17:02:47.074Z,2.78
2022-11-05T17:05:30.449Z,2.70
2022-11-05T17:07:57.935Z,3.85
2022-11-05T17:10:25.546Z,2.95
2022-11-05T17:12:52.201Z,7.78
2022-11-05T17:15:25.034Z,3.30
2022-11-05T17:17:53.579Z,12.30
2022-11-05T17:20:27.543Z,4.75
2022-11-05T17:22:54.740Z,9.27
2022-11-05T17:25:21.505Z,8.65
2022-11-05T17:27:48.448Z,5.53
2022-11-05T17:30:15.197Z,7.32
2022-11-05T17:32:41.810Z,7.28
2022-11-05T17:35:08.807Z,6.22
2022-11-05T17:37:35.319Z,4.85
2022-11-05T17:40:03.944Z,6.72
2022-11-05T17:42:30.391Z,5.07
2022-11-05T17:44:57.317Z,4.63
2022-11-05T17:47:25.556Z,7.53
2022-11-05T17:49:51.990Z,7.03
2022-11-05T17:52:18.434Z,6.43
2022-11-05T17:54:44.863Z,6.72
2022-11-05T17:57:11.341Z,6.45
2022-11-05T17:59:37.777Z,5.78
2022-11-05T18:02:04.585Z,10.70
2022-11-05T18:04:32.419Z,7.93
2022-11-05T18:06:58.845Z,7.43
2022-11-05T18:09:25.321Z,6.55
2022-11-05T18:11:51.763Z,7.22
2022-11-05T18:14:23.752Z,7.03
2022-11-05T18:16:51.648Z,11.57
2022-11-05T18:19:18.131Z,9.85
2022-11-05T18:21:44.602Z,8.20
2022-11-05T18:24:11.047Z,10.85
2022-11-05T18:26:37.466Z,8.65
2022-11-05T18:29:05.770Z,7.18
2022-11-05T18:31:32.389Z,6.22
2022-11-05T18:33:59.929Z,12.57
2022-11-05T18:36:28.199Z,10.48
2022-11-05T18:38:56.686Z,7.53
2022-11-05T18:41:23.449Z,8.32
2022-11-05T18:43:50.269Z,7.72
2022-11-05T18:46:36.377Z,8.40
2022-11-05T18:49:03.661Z,7.88
2022-11-05T18:51:30.481Z,5.85
2022-11-05T18:53:58.384Z,6.53
2022-11-05T18:56:24.921Z,6.95
2022-11-05T18:59:14.580Z,9.77
2022-11-05T19:01:40.484Z,8.00
2022-11-05T19:04:07.156Z,8.77
2022-11-05T19:06:33.925Z,10.48
2022-11-05T19:09:00.346Z,7.25
2022-11-05T19:11:27.012Z,7.55
2022-11-05T19:13:53.859Z,7.10
2022-11-05T19:16:27.074Z,7.22
2022-11-05T19:18:53.598Z,8.15
2022-11-05T19:21:23.025Z,8.27
2022-11-05T19:23:50.568Z,5.90
2022-11-05T19:26:25.633Z,6.22
2022-11-05T19:28:55.086Z,5.57
2022-11-05T19:31:23.545Z,10.50
2022-11-05T19:33:51.173Z,12.77
2022-11-05T19:36:20.551Z,10.80
2022-11-05T19:38:49.538Z,10.80
2022-11-05T19:41:18.303Z,6.85
2022-11-05T19:43:45.326Z,11.18
2022-11-05T19:46:15.007Z,14.07
2022-11-05T19:48:42.138Z,8.63
2022-11-05T19:51:14.021Z,9.55
2022-11-05T19:53:40.897Z,11.18
2022-11-05T19:56:18.950Z,10.82
2022-11-05T19:58:45.719Z,13.25
2022-11-05T20:01:14.249Z,9.40
2022-11-05T20:03:41.710Z,10.20
2022-11-05T20:06:10.892Z,8.93
2022-11-05T20:08:59.403Z,11.70
2022-11-05T20:11:25.128Z,8.50
2022-11-05T20:13:51.587Z,8.20
2022-11-05T20:16:23.548Z,7.38
2022-11-05T20:18:50.532Z,8.82
2022-11-05T20:21:17.562Z,8.05
2022-11-05T20:23:44.301Z,7.88
2022-11-05T20:26:11.641Z,7.20
2022-11-05T20:28:39.716Z,8.43
2022-11-05T20:31:08.322Z,7.30
2022-11-05T20:33:34.820Z,7.57
2022-11-05T20:36:04.658Z,8.73
2022-11-05T20:38:31.655Z,6.45
2022-11-05T20:40:58.786Z,9.35
2022-11-05T20:43:30.162Z,9.13
2022-11-05T20:45:58.404Z,9.15
2022-11-05T20:48:24.868Z,9.73
2022-11-05T20:50:51.322Z,8.75
2022-11-05T20:53:17.929Z,11.20
2022-11-05T20:55:47.417Z,8.27
2022-11-05T20:58:15.846Z,8.77
2022-11-05T21:00:49.960Z,11.00
2022-11-05T21:03:16.437Z,10.35
2022-11-05T21:05:54.271Z,9.32
2022-11-05T21:08:22.373Z,9.27
2022-11-05T21:10:51.398Z,10.55
2022-11-05T21:13:18.279Z,9.40
2022-11-05T21:15:52.295Z,11.07
2022-11-05T21:18:21.178Z,8.63
2022-11-05T21:20:47.764Z,10.80
2022-11-05T21:23:15.410Z,9.68
2022-11-05T21:25:43.181Z,11.90
2022-11-05T21:28:11.555Z,10.48
2022-11-05T21:30:42.000Z,11.13
2022-11-05T21:33:09.112Z,7.85
2022-11-05T21:35:39.935Z,8.93
2022-11-05T21:38:06.384Z,9.68
2022-11-05T21:40:32.851Z,9.55
2022-11-05T21:42:59.276Z,10.45
2022-11-05T21:45:26.035Z,10.35
2022-11-05T21:47:52.474Z,11.40
2022-11-05T21:50:21.877Z,9.05
2022-11-05T21:53:07.275Z,10.93
2022-11-05T21:55:52.144Z,7.47
2022-11-05T21:58:37.618Z,9.10
2022-11-05T22:01:04.163Z,10.32
2022-11-05T22:03:30.612Z,10.20
2022-11-05T22:05:57.272Z,9.70
2022-11-05T22:08:23.864Z,9.57
2022-11-05T22:10:50.304Z,10.57
2022-11-05T22:13:16.720Z,10.18
2022-11-05T22:15:43.162Z,10.38
2022-11-05T22:18:09.769Z,9.82
2022-11-05T22:20:39.695Z,10.20
2022-11-05T22:23:10.876Z,10.35
2022-11-05T22:25:37.882Z,10.70
2022-11-05T22:28:04.510Z,9.93
2022-11-05T22:30:34.564Z,10.90
2022-11-05T22:33:01.432Z,6.80
2022-11-05T22:35:28.873Z,10.05
2022-11-05T22:37:55.684Z,8.95
2022-11-05T22:40:23.940Z,9.52
2022-11-05T22:42:50.752Z,10.32
2022-11-05T22:45:17.189Z,9.63
2022-11-05T22:47:43.744Z,10.75
2022-11-05T22:50:10.442Z,9.57
2022-11-05T22:52:36.909Z,9.18
2022-11-05T22:55:06.036Z,9.15
2022-11-05T22:57:32.473Z,8.00
2022-11-05T22:59:58.889Z,9.65
2022-11-05T23:02:25.443Z,8.55
2022-11-05T23:04:52.191Z,8.85
2022-11-05T23:07:37.356Z,7.85
2022-11-05T23:10:22.748Z,8.52
2022-11-05T23:12:49.253Z,7.88
2022-11-05T23:15:34.238Z,9.13
2022-11-05T23:18:19.734Z,9.32
2022-11-05T23:21:04.484Z,7.38
2022-11-05T23:23:49.364Z,8.15
2022-11-05T23:26:34.107Z,8.00
2022-11-05T23:29:00.560Z,7.80
2022-11-05T23:31:45.482Z,7.47
2022-11-05T23:34:11.944Z,8.05
2022-11-05T23:36:56.764Z,8.43
2022-11-05T23:39:23.201Z,6.53
2022-11-05T23:42:08.030Z,8.98
2022-11-05T23:44:52.975Z,7.35
2022-11-05T23:47:37.829Z,8.82
2022-11-05T23:50:04.482Z,8.02
2022-11-05T23:52:30.917Z,8.65
2022-11-05T23:54:57.324Z,7.40
2022-11-05T23:57:23.769Z,6.25
2022-11-05T23:59:50.225Z,6.50
